Time;durP1;ratioP1;P1;durP2;ratioP2;P2;SDS_P1;SDS_P2;PMS_P1;PMS_P2;Temp;Humidity;BMP_temperature;BMP_pressure;BME280_temperature;BME280_humidity;BME280_pressure;Samples;Min_cycle;Max_cycle;Signal;HPM_P1;HPM_P2
2022/04/22 00:01:34;;;;;;;21.10;11.27;;;;;;;5.97;74.27;91357.41;4823938;29;20060;-89
2022/04/22 00:04:10;;;;;;;29.83;12.20;;;;;;;5.90;74.53;91339.56;4783410;29;20417;-90
2022/04/22 00:06:42;;;;;;;21.35;11.57;;;;;;;5.77;74.84;91316.94;4815045;29;20034;-89
2022/04/22 00:09:16;;;;;;;22.10;10.80;;;;;;;5.91;74.49;91340.34;4793280;29;20034;-90
2022/04/22 00:11:51;;;;;;;21.00;11.70;;;;;;;6.05;73.87;91362.69;4794057;29;20050;-90
2022/04/22 00:14:22;;;;;;;20.95;11.23;;;;;;;5.70;74.06;91309.50;4793150;29;20786;-91
2022/04/22 00:16:51;;;;;;;22.35;11.80;;;;;;;5.81;74.28;91316.06;4808296;29;20042;-90
2022/04/22 00:19:40;;;;;;;20.25;10.95;;;;;;;6.07;74.47;91357.22;4808057;29;20030;-89
2022/04/22 00:22:08;;;;;;;22.23;10.45;;;;;;;5.95;74.77;91331.72;4778957;29;20042;-89
2022/04/22 00:24:38;;;;;;;19.70;10.85;;;;;;;5.92;74.53;91324.47;4793248;29;20110;-89
2022/04/22 00:27:04;;;;;;;25.52;11.13;;;;;;;5.64;74.57;91282.84;4792903;29;20046;-90
2022/04/22 00:29:50;;;;;;;20.55;11.52;;;;;;;5.67;74.39;91289.28;4799155;29;20040;-90
2022/04/22 00:32:18;;;;;;;21.55;12.23;;;;;;;5.62;74.87;91277.16;4778623;29;20112;-89
2022/04/22 00:34:59;;;;;;;23.08;11.30;;;;;;;5.64;74.75;91282.06;4809850;29;20049;-90
2022/04/22 00:37:35;;;;;;;19.50;10.30;;;;;;;5.68;74.66;91290.84;4793873;29;20054;-89
2022/04/22 00:40:04;;;;;;;21.75;11.05;;;;;;;5.56;74.84;91275.72;4804474;29;20095;-89
2022/04/22 00:42:39;;;;;;;22.77;11.13;;;;;;;5.81;74.93;91317.91;4807667;29;20053;-90
2022/04/22 00:45:24;;;;;;;20.77;10.65;;;;;;;5.69;75.06;91304.59;4807710;29;20045;-89
2022/04/22 00:47:50;;;;;;;22.52;11.38;;;;;;;5.62;75.14;91289.38;4810486;29;20046;-89
2022/04/22 00:50:21;;;;;;;24.05;11.18;;;;;;;5.56;75.49;91288.69;4829851;29;20383;-90
2022/04/22 00:52:57;;;;;;;21.90;11.05;;;;;;;5.37;75.31;91264.59;4807703;29;20117;-88
2022/04/22 00:55:29;;;;;;;24.80;12.30;;;;;;;5.50;75.39;91279.44;4793505;29;20041;-89
2022/04/22 00:58:07;;;;;;;20.45;11.05;;;;;;;5.41;75.17;91270.75;4807846;29;20095;-90
2022/04/22 01:00:38;;;;;;;23.30;11.13;;;;;;;5.32;74.76;91256.88;4778552;29;20042;-90
2022/04/22 01:03:18;;;;;;;22.77;11.65;;;;;;;5.33;75.38;91261.00;4825908;29;20042;-90
2022/04/22 01:11:27;;;;;;;;;;;;;;;;;;;;;
2022/04/22 01:14:16;;;;;;;21.67;11.73;;;;;;;5.34;76.03;91257.38;4806386;29;20090;-89
2022/04/22 01:16:52;;;;;;;27.83;11.80;;;;;;;5.21;75.88;91233.69;4819335;29;20045;-90
2022/04/22 01:19:27;;;;;;;25.67;11.73;;;;;;;5.19;76.50;91233.19;4841725;29;20371;-89
2022/04/22 01:22:06;;;;;;;20.52;11.98;;;;;;;5.34;76.79;91260.75;4813264;29;20563;-90
2022/04/22 01:24:35;;;;;;;24.27;12.60;;;;;;;5.30;76.68;91253.81;4813292;29;20073;-90
2022/04/22 01:27:07;;;;;;;25.92;11.43;;;;;;;5.28;76.57;91255.91;4814084;29;20061;-90
2022/04/22 01:29:37;;;;;;;19.80;10.77;;;;;;;5.13;76.68;91228.38;4828110;29;20030;-90
2022/04/22 01:32:09;;;;;;;21.38;11.65;;;;;;;5.18;76.72;91234.25;4824784;29;20068;-89
2022/04/22 01:34:42;;;;;;;23.20;12.00;;;;;;;5.09;77.02;91217.81;4824207;29;20125;-91
2022/04/22 01:37:11;;;;;;;22.88;11.85;;;;;;;5.14;77.23;91217.72;4825947;29;20066;-89
2022/04/22 01:39:39;;;;;;;20.75;12.55;;;;;;;5.18;77.35;91225.72;4815854;29;20052;-89
2022/04/22 01:42:10;;;;;;;22.95;11.57;;;;;;;5.13;77.24;91218.00;4802797;29;20035;-89
2022/04/22 01:44:52;;;;;;;27.05;12.48;;;;;;;5.16;77.48;91217.44;4806934;29;20042;-90
2022/04/22 01:47:19;;;;;;;26.98;12.35;;;;;;;5.33;77.72;91237.66;4809076;29;20042;-89
2022/04/22 01:49:56;;;;;;;23.67;11.48;;;;;;;5.34;77.63;91227.00;4802057;29;21901;-89
2022/04/22 01:52:41;;;;;;;20.23;11.63;;;;;;;5.34;77.65;91223.66;4835621;29;20034;-91
2022/04/22 01:55:18;;;;;;;22.55;11.32;;;;;;;5.41;77.47;91240.38;4805238;29;20062;-88
2022/04/22 01:57:49;;;;;;;22.58;11.75;;;;;;;5.02;77.55;91181.06;4773973;29;20055;-90
2022/04/22 02:00:20;;;;;;;21.40;11.50;;;;;;;5.06;77.59;91191.66;4814089;29;20049;-90
2022/04/22 02:02:52;;;;;;;22.35;12.10;;;;;;;5.09;77.47;91199.66;4807920;29;20054;-89
2022/04/22 02:05:40;;;;;;;21.55;12.20;;;;;;;4.86;77.62;91177.94;4790139;29;20039;-90
2022/04/22 02:08:13;;;;;;;23.50;11.90;;;;;;;5.04;77.42;91210.06;4775608;29;20100;-89
2022/04/22 02:10:46;;;;;;;24.30;12.30;;;;;;;4.73;77.70;91166.47;4821477;29;20137;-90
2022/04/22 02:13:39;;;;;;;24.02;12.98;;;;;;;4.94;77.82;91199.88;4807332;29;20497;-90
2022/04/22 02:16:07;;;;;;;29.58;11.52;;;;;;;4.69;77.85;91167.31;4793903;29;20046;-89
2022/04/22 02:18:49;;;;;;;;;;;;;;;;;;;;;
2022/04/22 02:21:25;;;;;;;27.27;12.32;;;;;;;4.65;77.66;91172.28;4805756;29;20033;-90
2022/04/22 02:24:06;;;;;;;24.45;11.90;;;;;;;4.74;77.46;91196.50;4811379;29;20042;-89
2022/04/22 02:29:29;;;;;;;23.33;11.98;;;;;;;4.72;77.71;91190.84;4806679;29;20038;-90
2022/04/22 02:31:57;;;;;;;24.48;11.98;;;;;;;4.84;78.07;91203.41;4809718;29;20041;-90
2022/04/22 02:34:23;;;;;;;24.08;13.35;;;;;;;4.78;78.51;91191.53;4795432;29;20043;-90
2022/04/22 02:36:50;;;;;;;26.10;13.27;;;;;;;4.69;78.24;91173.25;4824118;29;20105;-89
2022/04/22 02:39:19;;;;;;;25.40;12.18;;;;;;;4.80;78.68;91190.22;4810779;29;20038;-89
2022/04/22 02:47:25;;;;;;;30.30;12.35;;;;;;;4.89;79.10;91179.97;4796494;29;20119;-89
2022/04/22 02:49:51;;;;;;;22.17;11.73;;;;;;;4.87;79.07;91169.09;4812196;29;20070;-90
2022/04/22 02:52:17;;;;;;;24.27;12.43;;;;;;;5.04;79.15;91178.19;4810100;29;20034;-90
2022/04/22 02:54:43;;;;;;;23.42;12.93;;;;;;;4.80;79.03;91145.38;4795779;29;20059;-89
2022/04/22 02:57:09;;;;;;;24.35;13.35;;;;;;;4.98;78.88;91159.34;4794976;29;20091;-90
2022/04/22 02:59:39;;;;;;;27.73;14.68;;;;;;;5.05;78.89;91159.75;4810538;29;20093;-89
2022/04/22 03:02:05;;;;;;;26.65;13.48;;;;;;;5.01;78.77;91153.59;4816328;29;20499;-89
2022/04/22 03:04:31;;;;;;;28.45;13.45;;;;;;;4.95;78.66;91137.34;4829923;29;20068;-89
2022/04/22 03:07:09;;;;;;;25.13;12.82;;;;;;;5.09;78.85;91141.78;4825049;29;20502;-90
2022/04/22 03:09:36;;;;;;;23.98;12.88;;;;;;;4.98;78.90;91129.00;4842180;29;20042;-91
2022/04/22 03:12:16;;;;;;;47.50;21.75;;;;;;;5.07;79.13;91142.09;4866957;29;20101;-91
2022/04/22 03:14:44;;;;;;;67.30;27.23;;;;;;;5.09;79.00;91149.56;4837715;29;20046;-91
2022/04/22 03:17:24;;;;;;;40.05;19.33;;;;;;;4.78;79.11;91103.41;4848989;29;20059;-92
2022/04/22 03:19:55;;;;;;;38.72;18.48;;;;;;;4.70;78.85;91094.44;4827570;29;20057;-89
2022/04/22 03:22:52;;;;;;;41.42;19.45;;;;;;;4.79;79.14;91103.09;4839077;29;20036;-90
2022/04/22 03:25:30;;;;;;;32.63;15.03;;;;;;;5.04;78.85;91147.81;4825214;29;20038;-90
2022/04/22 03:28:13;;;;;;;29.80;14.40;;;;;;;4.95;79.06;91128.78;4807957;29;20294;-89
2022/04/22 03:30:54;;;;;;;29.38;14.05;;;;;;;4.70;79.20;91097.03;4827675;29;20034;-89
2022/04/22 03:33:20;;;;;;;33.95;13.68;;;;;;;4.65;79.16;91084.16;4827711;29;20046;-90
2022/04/22 03:36:10;;;;;;;25.52;13.48;;;;;;;4.75;79.06;91096.97;4816302;29;20030;-89
2022/04/22 03:38:54;;;;;;;23.58;12.57;;;;;;;4.82;79.42;91106.97;4812112;29;20049;-90
2022/04/22 03:41:20;;;;;;;30.92;12.48;;;;;;;4.75;79.53;91072.84;4840069;29;20030;-89
2022/04/22 03:44:11;;;;;;;25.85;13.32;;;;;;;5.05;79.60;91120.09;4828943;29;20125;-89
2022/04/22 03:46:48;;;;;;;26.75;13.65;;;;;;;4.94;79.55;91098.72;4798524;29;20045;-90
2022/04/22 03:49:26;;;;;;;24.95;13.20;;;;;;;4.91;79.81;91086.31;4807210;29;20042;-89
2022/04/22 03:51:57;;;;;;;25.77;13.75;;;;;;;4.86;79.49;91073.44;4811865;29;20470;-89
2022/04/22 03:54:55;;;;;;;24.73;13.02;;;;;;;5.10;79.15;91100.00;4826261;29;20041;-90
2022/04/22 04:00:32;;;;;;;29.75;13.27;;;;;;;4.92;78.58;91067.13;4828126;29;20042;-90
2022/04/22 04:03:03;;;;;;;26.48;13.25;;;;;;;5.15;78.82;91099.91;4835232;29;20034;-89
2022/04/22 04:05:37;;;;;;;31.95;12.85;;;;;;;4.93;78.76;91058.28;4814840;29;20050;-91
2022/04/22 04:08:14;;;;;;;29.20;13.75;;;;;;;5.14;79.07;91084.66;4833995;29;20034;-89
2022/04/22 04:16:23;;;;;;;27.77;12.95;;;;;;;5.14;79.66;91063.91;4828503;29;20053;-89
2022/04/22 04:24:42;;;;;;;28.98;14.05;;;;;;;5.21;79.40;91091.00;4810718;29;20076;-89
2022/04/22 04:27:16;;;;;;;31.90;14.13;;;;;;;5.02;79.78;91066.94;4825531;29;20048;-89
2022/04/22 04:29:46;;;;;;;25.45;13.00;;;;;;;5.09;79.46;91082.91;4796609;29;20046;-89
2022/04/22 04:32:24;;;;;;;28.27;13.95;;;;;;;4.94;79.11;91065.03;4823218;29;20420;-89
2022/04/22 04:34:57;;;;;;;32.28;14.05;;;;;;;5.01;79.06;91071.38;4811175;29;20046;-89
2022/04/22 04:37:25;;;;;;;28.48;14.63;;;;;;;4.98;79.29;91063.41;4804803;29;20068;-90
2022/04/22 04:40:01;;;;;;;29.95;14.30;;;;;;;5.24;79.72;91094.06;4826565;29;20065;-89
2022/04/22 04:42:38;;;;;;;29.73;12.48;;;;;;;5.25;79.58;91091.19;4797582;29;20045;-89
2022/04/22 04:45:10;;;;;;;26.17;14.10;;;;;;;5.11;79.69;91062.66;4804894;29;20094;-89
2022/04/22 04:47:42;;;;;;;;;;;;;;;5.43;79.72;91102.56;4810173;29;20041;-89
2022/04/22 04:50:11;;;;;;;26.90;13.18;;;;;;;5.37;79.62;91082.94;4819668;29;19952;-89
2022/04/22 04:52:40;;;;;;;29.67;14.55;;;;;;;5.21;79.12;91048.72;4805843;29;20467;-89
2022/04/22 04:55:31;;;;;;;29.60;15.73;;;;;;;5.18;78.77;91039.69;4816975;29;20121;-89
2022/04/22 04:57:59;;;;;;;28.30;14.77;;;;;;;5.37;78.42;91056.97;4793665;29;20120;-89
2022/04/22 05:00:50;;;;;;;;;;;;;;;;;;;;;
2022/04/22 05:03:38;;;;;;;30.05;14.00;;;;;;;5.64;79.26;91093.31;4829234;29;20072;-89
2022/04/22 05:06:04;;;;;;;27.10;14.25;;;;;;;5.59;79.25;91083.03;4809189;29;20042;-85
2022/04/22 05:08:30;;;;;;;32.42;16.00;;;;;;;5.63;79.62;91078.03;4826799;29;20030;-85
2022/04/22 05:10:55;;;;;;;35.45;14.93;;;;;;;5.55;79.31;91063.13;4819526;29;20102;-86
2022/04/22 05:13:24;;;;;;;34.67;16.63;;;;;;;5.55;78.90;91055.34;4816450;29;20031;-85
2022/04/22 05:15:57;;;;;;;30.02;14.85;;;;;;;5.62;77.37;91047.94;4816690;29;20128;-85
2022/04/22 05:18:23;;;;;;;28.23;13.90;;;;;;;5.54;77.41;91041.59;4803304;29;20031;-85
2022/04/22 05:20:49;;;;;;;25.67;13.93;;;;;;;5.60;77.89;91047.44;4807190;29;20058;-86
2022/04/22 05:23:18;;;;;;;26.75;12.75;;;;;;;5.70;76.67;91043.91;4826381;29;20466;-85
2022/04/22 05:25:48;;;;;;;27.00;13.43;;;;;;;5.61;77.07;91047.16;4825916;29;20037;-84
2022/04/22 05:28:16;;;;;;;26.48;13.70;;;;;;;5.64;77.74;91033.59;4826757;29;20037;-85
2022/04/22 05:33:25;;;;;;;33.63;14.38;;;;;;;6.12;77.55;91097.31;4830494;29;20049;-85
2022/04/22 05:35:51;;;;;;;27.75;14.73;;;;;;;6.16;77.51;91095.66;4810450;29;20042;-86
2022/04/22 05:38:17;;;;;;;33.25;14.95;;;;;;;6.17;77.46;91093.84;4815630;29;20432;-85
2022/04/22 05:40:46;;;;;;;29.67;14.75;;;;;;;6.04;77.19;91065.00;4825979;29;20132;-86
2022/04/22 05:43:11;;;;;;;27.95;13.23;;;;;;;6.35;77.36;91097.34;4811157;29;20038;-85
2022/04/22 05:45:37;;;;;;;24.23;12.88;;;;;;;6.35;77.20;91085.16;4786722;29;20475;-85
2022/04/22 05:48:03;;;;;;;26.83;13.35;;;;;;;6.45;76.54;91086.75;4808444;29;20117;-85
2022/04/22 05:50:29;;;;;;;34.80;13.95;;;;;;;6.40;76.49;91081.66;4827304;29;20503;-85
2022/04/22 05:52:55;;;;;;;30.20;15.32;;;;;;;6.25;75.92;91054.94;4814571;29;20037;-87
2022/04/22 05:55:27;;;;;;;38.00;16.92;;;;;;;6.39;75.72;91072.31;4841658;29;20046;-85
2022/04/22 05:57:53;;;;;;;28.90;15.70;;;;;;;6.48;75.03;91078.34;4829464;29;20034;-86
2022/04/22 06:00:21;;;;;;;36.05;16.27;;;;;;;6.47;75.01;91074.97;4818270;29;20041;-87
2022/04/22 06:02:50;;;;;;;38.20;16.00;;;;;;;6.60;74.75;91090.84;4830717;29;20050;-85
2022/04/22 06:05:20;;;;;;;35.00;15.70;;;;;;;6.50;74.73;91067.66;4807238;29;20126;-86
2022/04/22 06:07:47;;;;;;;34.65;14.63;;;;;;;6.73;74.71;91073.63;4794054;29;20207;-86
2022/04/22 06:10:32;;;;;;;34.83;14.75;;;;;;;6.81;74.63;91081.47;4793855;29;20039;-87
2022/04/22 06:13:01;;;;;;;31.52;15.40;;;;;;;6.82;73.93;91074.44;4787362;29;20130;-87
2022/04/22 06:15:28;;;;;;;30.15;15.40;;;;;;;6.83;74.26;91073.41;4798286;29;20070;-87
2022/04/22 06:17:54;;;;;;;32.75;15.30;;;;;;;6.88;74.59;91066.22;4815051;29;20022;-86
2022/04/22 06:20:19;;;;;;;31.60;15.55;;;;;;;6.96;75.46;91066.56;4783924;29;20067;-87
2022/04/22 06:22:45;;;;;;;32.03;15.20;;;;;;;7.03;74.82;91072.91;4812427;29;20026;-87
2022/04/22 06:25:11;;;;;;;31.80;14.95;;;;;;;6.77;75.01;91049.31;4798562;29;20034;-86
2022/04/22 06:27:41;;;;;;;34.50;14.57;;;;;;;6.65;73.42;91038.72;4798731;29;20076;-89
2022/04/22 06:30:11;;;;;;;28.13;15.30;;;;;;;6.80;72.91;91084.38;4813561;29;20054;-87
2022/04/22 06:32:41;;;;;;;30.50;15.90;;;;;;;6.59;72.96;91025.06;4811647;29;20035;-88
2022/04/22 06:35:09;;;;;;;36.13;14.90;;;;;;;6.85;73.41;91046.03;4810518;29;20038;-89
2022/04/22 06:37:42;;;;;;;28.83;14.68;;;;;;;7.03;73.90;91059.13;4799166;29;20053;-89
2022/04/22 06:45:47;;;;;;;26.92;12.88;;;;;;;7.60;70.14;91080.03;4833670;29;20031;-92
2022/04/22 06:48:18;;;;;;;31.15;15.07;;;;;;;7.69;71.40;91080.81;4833350;29;20026;-91
2022/04/22 06:50:49;;;;;;;31.58;15.02;;;;;;;7.72;70.70;91066.41;4833230;29;20071;-90
2022/04/22 06:53:16;;;;;;;30.00;14.55;;;;;;;7.96;70.42;91076.44;4831559;29;20027;-86
2022/04/22 06:55:42;;;;;;;27.20;14.18;;;;;;;7.78;69.61;91031.34;4817886;29;20042;-87
2022/04/22 06:58:11;;;;;;;35.80;13.70;;;;;;;8.09;69.35;91059.91;4782313;29;20039;-87
2022/04/22 07:00:37;;;;;;;27.85;13.98;;;;;;;8.07;69.67;91041.19;4790657;29;20122;-87
2022/04/22 07:03:04;;;;;;;33.08;14.50;;;;;;;8.40;70.29;91077.31;4813761;29;20054;-87
2022/04/22 07:05:32;;;;;;;33.30;13.75;;;;;;;8.46;69.32;91067.47;4842561;29;20050;-87
2022/04/22 07:07:59;;;;;;;31.83;13.55;;;;;;;8.58;69.19;91072.06;4816051;29;20132;-89
2022/04/22 07:10:25;;;;;;;29.95;15.63;;;;;;;8.35;69.20;91059.16;4818229;29;20057;-87
2022/04/22 07:12:51;;;;;;;26.33;13.02;;;;;;;8.09;69.36;91082.59;4813130;29;20486;-87
2022/04/22 07:15:16;;;;;;;27.17;14.68;;;;;;;7.97;68.47;91064.97;4811328;29;20046;-88
2022/04/22 07:17:42;;;;;;;27.25;13.38;;;;;;;8.04;67.39;91082.75;4799649;29;20033;-88
2022/04/22 07:20:10;;;;;;;31.92;13.90;;;;;;;8.05;68.13;91069.41;4812935;29;20048;-90
2022/04/22 07:22:37;;;;;;;29.50;14.63;;;;;;;8.34;68.37;91076.66;4826613;29;20046;-87
2022/04/22 07:25:04;;;;;;;28.60;14.23;;;;;;;8.48;67.82;91066.09;4828469;29;20045;-86
2022/04/22 07:27:33;;;;;;;32.10;13.57;;;;;;;8.69;67.73;91065.47;4814494;29;20038;-87
2022/04/22 07:29:59;;;;;;;31.10;13.82;;;;;;;8.91;67.20;91077.56;4841678;29;20045;-86
2022/04/22 07:32:26;;;;;;;29.05;13.88;;;;;;;9.09;66.23;91078.31;4841631;29;20117;-85
2022/04/22 07:34:56;;;;;;;27.33;13.52;;;;;;;9.16;64.43;91068.94;4813361;29;20081;-85
2022/04/22 07:37:23;;;;;;;26.60;12.52;;;;;;;9.19;64.68;91064.94;4815344;29;20045;-85
2022/04/22 07:39:49;;;;;;;22.65;12.43;;;;;;;8.87;65.24;91045.34;4845523;29;20038;-88
2022/04/22 07:42:20;;;;;;;27.98;14.02;;;;;;;8.78;65.87;91066.25;4846316;29;20497;-87
2022/04/22 07:47:33;;;;;;;29.40;14.20;;;;;;;9.02;65.87;91073.56;4842126;29;20026;-88
2022/04/22 07:50:02;;;;;;;40.10;15.55;;;;;;;8.95;66.90;91079.25;4813579;29;20128;-87
2022/04/22 07:52:28;;;;;;;30.10;15.05;;;;;;;8.79;66.73;91049.50;4828815;29;20439;-86
2022/04/22 07:54:54;;;;;;;34.20;16.50;;;;;;;9.15;66.45;91077.84;4792065;29;20038;-90
2022/04/22 07:57:21;;;;;;;30.33;14.63;;;;;;;9.12;65.63;91054.97;4840036;29;20479;-90
2022/04/22 07:59:47;;;;;;;28.25;14.48;;;;;;;9.22;64.78;91085.19;4827143;29;20517;-90
2022/04/22 08:02:13;;;;;;;34.50;15.02;;;;;;;9.29;65.98;91076.88;4818112;29;20050;-89
2022/04/22 08:04:38;;;;;;;34.17;17.13;;;;;;;9.50;64.60;91061.28;4781222;29;20067;-90
2022/04/22 08:07:06;;;;;;;31.95;15.15;;;;;;;9.73;63.38;91069.66;4826586;29;20042;-89
2022/04/22 08:09:36;;;;;;;32.65;14.68;;;;;;;9.85;62.81;91074.22;4809773;29;20031;-89
2022/04/22 08:12:05;;;;;;;32.58;14.88;;;;;;;9.31;64.71;91038.16;4819438;29;20039;-89
2022/04/22 08:14:43;;;;;;;32.70;15.55;;;;;;;9.69;63.29;91043.38;4811501;29;20026;-89
2022/04/22 08:17:12;;;;;;;36.08;15.32;;;;;;;9.65;63.81;91029.41;4796936;29;20046;-89
2022/04/22 08:19:38;;;;;;;35.83;15.02;;;;;;;9.64;63.29;91014.81;4827401;29;20041;-89
2022/04/22 08:22:06;;;;;;;25.98;13.80;;;;;;;10.23;61.48;91055.06;4794727;29;20387;-89
2022/04/22 08:24:35;;;;;;;28.83;15.80;;;;;;;10.39;61.63;91043.75;4807318;29;20057;-89
2022/04/22 08:27:06;;;;;;;31.30;14.73;;;;;;;10.25;61.92;91058.16;4794086;29;20042;-89
2022/04/22 08:29:46;;;;;;;31.50;14.00;;;;;;;10.11;60.68;91017.31;4811035;29;20073;-89
2022/04/22 08:32:14;;;;;;;31.33;14.82;;;;;;;10.26;61.98;91030.91;4812475;29;20048;-89
2022/04/22 08:35:00;;;;;;;31.63;15.77;;;;;;;10.34;61.72;91035.34;4797563;29;20035;-89
2022/04/22 08:37:28;;;;;;;28.55;13.82;;;;;;;10.65;60.32;91068.97;4813229;29;20035;-89
2022/04/22 08:39:59;;;;;;;25.60;13.38;;;;;;;10.26;61.17;91015.97;4813071;29;20045;-89
2022/04/22 08:42:46;;;;;;;23.88;12.60;;;;;;;10.34;60.00;91009.19;4804543;29;20050;-89
2022/04/22 08:45:12;;;;;;;30.50;15.40;;;;;;;10.58;59.79;91004.06;4831157;29;20038;-89
2022/04/22 08:50:41;;;;;;;;;;;;;;;;;;;;;
2022/04/22 08:53:14;;;;;;;23.05;10.52;;;;;;;11.20;56.47;91004.97;4809471;29;20042;-88
2022/04/22 08:55:47;;;;;;;22.20;10.38;;;;;;;11.18;57.62;91003.78;4823372;29;20042;-90
2022/04/22 08:58:24;;;;;;;23.25;11.63;;;;;;;11.90;57.41;91029.59;4807784;29;20050;-88
2022/04/22 09:00:54;;;;;;;22.65;10.45;;;;;;;12.10;55.25;91031.31;4807800;29;20565;-88
2022/04/22 09:03:21;;;;;;;20.73;9.27;;;;;;;12.31;53.65;91019.91;4793529;29;20502;-90
2022/04/22 09:05:52;;;;;;;22.23;10.45;;;;;;;12.31;51.91;91006.81;4823474;29;20038;-91
2022/04/22 09:08:18;;;;;;;18.77;8.77;;;;;;;11.96;54.07;91039.53;4774137;29;20523;-87
2022/04/22 09:10:53;;;;;;;29.80;15.05;;;;;;;12.11;55.41;91032.09;4791527;29;20045;-89
2022/04/22 09:13:26;;;;;;;37.33;16.33;;;;;;;11.90;57.08;91011.25;4808180;29;20137;-90
2022/04/22 09:15:53;;;;;;;36.92;17.23;;;;;;;11.84;57.00;91031.63;4792087;29;20085;-89
2022/04/22 09:18:32;;;;;;;;;;;;;;;;;;;;;
2022/04/22 09:21:06;;;;;;;33.80;15.52;;;;;;;11.32;58.53;91021.78;4806980;29;20066;-88
2022/04/22 09:23:42;;;;;;;32.17;15.98;;;;;;;11.87;58.02;91054.59;4807788;29;20043;-89
2022/04/22 09:26:24;;;;;;;27.30;12.98;;;;;;;11.43;56.96;91010.56;4792257;29;20072;-89
2022/04/22 09:29:04;;;;;;;30.50;14.70;;;;;;;11.56;57.69;91010.56;4791648;29;20549;-89
2022/04/22 09:31:47;;;;;;;34.05;14.15;;;;;;;11.38;57.43;91017.88;4807263;29;20046;-88
2022/04/22 09:34:31;;;;;;;27.48;14.02;;;;;;;11.62;56.68;91012.66;4807435;29;20034;-88
2022/04/22 09:42:51;;;;;;;24.63;10.60;;;;;;;12.53;55.30;91037.03;4789283;29;20058;-87
2022/04/22 09:45:17;;;;;;;24.42;10.23;;;;;;;12.53;53.70;91040.41;4784142;29;20133;-88
2022/04/22 09:47:43;;;;;;;22.52;9.98;;;;;;;12.79;54.09;91020.84;4757677;29;20044;-88
2022/04/22 09:50:16;;;;;;;19.90;10.15;;;;;;;12.96;54.99;91032.94;4807389;29;20034;-88
2022/04/22 09:52:46;;;;;;;23.50;7.22;;;;;;;12.85;54.30;91045.78;4823539;29;20042;-88
2022/04/22 09:55:16;;;;;;;16.77;6.70;;;;;;;13.33;53.35;91041.44;4807277;29;20455;-88
2022/04/22 09:58:00;;;;;;;21.45;11.73;;;;;;;13.26;52.80;91031.47;4778378;29;20065;-88
2022/04/22 10:00:28;;;;;;;24.23;11.45;;;;;;;12.11;55.73;91043.34;4789454;29;20038;-88
2022/04/22 10:02:55;;;;;;;27.42;13.18;;;;;;;12.34;54.64;91042.84;4820913;29;20439;-88
2022/04/22 10:05:23;;;;;;;24.63;12.73;;;;;;;12.75;53.23;91046.28;4824891;29;20041;-88
2022/04/22 10:07:55;;;;;;;23.13;11.60;;;;;;;12.46;53.99;91029.72;4825619;29;20451;-88
2022/04/22 10:10:25;;;;;;;29.50;12.48;;;;;;;12.11;56.06;91038.09;4825476;29;20045;-88
2022/04/22 10:12:59;;;;;;;23.92;11.07;;;;;;;12.58;54.62;91037.56;4834595;29;20413;-90
2022/04/22 10:15:29;;;;;;;20.50;10.88;;;;;;;12.36;55.60;91025.72;4812041;29;20034;-89
2022/04/22 10:17:56;;;;;;;22.65;10.85;;;;;;;12.13;54.89;91035.91;4816143;29;20049;-88
2022/04/22 10:20:25;;;;;;;25.80;11.30;;;;;;;11.46;57.20;91041.34;4859661;29;20037;-92
2022/04/22 10:22:53;;;;;;;21.77;10.05;;;;;;;11.62;56.92;91027.63;4837061;29;20026;-90
2022/04/22 10:25:19;;;;;;;16.48;9.27;;;;;;;12.10;55.78;91036.56;4818964;29;20037;-91
2022/04/22 10:27:58;;;;;;;16.58;8.68;;;;;;;11.90;55.94;91003.38;4834104;29;20101;-88
2022/04/22 10:30:28;;;;;;;17.40;8.65;;;;;;;11.47;56.64;90987.09;4825831;29;20052;-89
2022/04/22 10:32:57;;;;;;;19.52;8.82;;;;;;;11.79;54.60;90993.31;4827736;29;20022;-88
2022/04/22 10:36:02;;;;;;;18.92;8.95;;;;;;;12.15;54.18;91017.22;4830114;29;20085;-89
2022/04/22 10:38:53;;;;;;;17.42;8.77;;;;;;;12.26;54.20;90992.81;4828443;29;20046;-88
2022/04/22 10:41:33;;;;;;;16.00;8.15;;;;;;;13.23;53.25;91047.91;4829351;29;20046;-89
2022/04/22 10:47:18;;;;;;;14.75;8.05;;;;;;;13.15;51.80;91050.69;4837511;29;20387;-90
2022/04/22 10:49:45;;;;;;;15.35;8.02;;;;;;;12.80;53.73;91051.28;4827949;29;20038;-89
2022/04/22 10:52:17;;;;;;;15.10;8.18;;;;;;;13.10;51.50;91039.34;4828087;29;20045;-89
2022/04/22 10:54:55;;;;;;;15.27;8.27;;;;;;;13.72;49.64;91049.50;4820019;29;20033;-89
2022/04/22 10:57:23;;;;;;;14.82;7.72;;;;;;;13.89;49.74;91033.38;4831254;29;20044;-89
2022/04/22 11:00:01;;;;;;;16.20;8.18;;;;;;;13.19;51.28;91048.91;4835561;29;20037;-90
2022/04/22 11:02:32;;;;;;;19.00;9.23;;;;;;;12.83;52.77;91050.59;4863227;29;20470;-90
2022/04/22 11:05:19;;;;;;;16.88;9.18;;;;;;;13.70;51.08;91062.22;4848932;29;20128;-90
2022/04/22 11:07:51;;;;;;;18.77;9.35;;;;;;;13.36;51.89;91059.16;4829807;29;20038;-89
2022/04/22 11:10:23;;;;;;;19.42;9.43;;;;;;;13.22;51.84;91056.13;4849931;29;20062;-89
2022/04/22 11:12:52;;;;;;;18.23;8.75;;;;;;;13.52;51.35;91059.16;4849248;29;20034;-89
2022/04/22 11:15:43;;;;;;;16.95;9.45;;;;;;;13.58;50.97;91054.41;4812241;29;20394;-88
2022/04/22 11:18:16;;;;;;;20.80;10.45;;;;;;;13.31;52.03;91041.00;4800048;29;20148;-89
2022/04/22 11:20:50;;;;;;;17.85;10.63;;;;;;;13.48;52.38;91056.44;4843756;29;20144;-88
2022/04/22 11:23:17;;;;;;;20.20;10.20;;;;;;;12.50;55.51;91056.84;4833393;29;20146;-88
2022/04/22 11:25:44;;;;;;;22.08;10.95;;;;;;;12.56;53.90;91044.22;4829890;29;20034;-87
2022/04/22 11:28:10;;;;;;;17.63;9.60;;;;;;;12.63;54.64;91068.06;4801678;29;20490;-88
2022/04/22 11:30:37;;;;;;;17.80;9.30;;;;;;;12.73;54.63;91066.84;4818971;29;20041;-89
2022/04/22 11:33:27;;;;;;;19.38;10.10;;;;;;;12.80;54.72;91067.78;4803652;29;20506;-87
2022/04/22 11:35:57;;;;;;;19.42;9.50;;;;;;;12.93;54.00;91060.63;4818930;29;20042;-87
2022/04/22 11:38:24;;;;;;;21.02;10.57;;;;;;;12.67;54.63;91064.44;4815436;29;20041;-87
2022/04/22 11:40:50;;;;;;;18.55;10.95;;;;;;;12.81;54.68;91073.81;4826581;29;20111;-88
2022/04/22 11:43:18;;;;;;;17.20;9.38;;;;;;;12.76;54.31;91076.66;4814457;29;20035;-87
2022/04/22 11:45:45;;;;;;;20.63;9.85;;;;;;;13.22;52.68;91066.66;4827922;29;20042;-88
2022/04/22 11:48:19;;;;;;;14.23;7.10;;;;;;;12.65;54.36;91077.16;4827129;29;20129;-87
2022/04/22 11:50:46;;;;;;;26.30;10.20;;;;;;;12.64;55.48;91080.09;4826315;29;20046;-89
2022/04/22 11:53:20;;;;;;;21.70;10.30;;;;;;;12.52;55.91;91075.66;4798413;29;20031;-89
2022/04/22 11:55:48;;;;;;;25.80;11.10;;;;;;;12.70;54.98;91063.78;4793157;29;20089;-87
2022/04/22 11:58:23;;;;;;;25.13;10.57;;;;;;;12.60;55.92;91087.09;4838600;29;20551;-87
2022/04/22 12:06:20;;;;;;;21.05;11.00;;;;;;;13.08;54.51;91091.44;4808533;29;20038;-87
2022/04/22 12:09:00;;;;;;;21.25;11.55;;;;;;;13.23;54.29;91089.19;4801015;29;20039;-87
2022/04/22 12:11:27;;;;;;;17.83;8.90;;;;;;;13.01;54.64;91093.84;4823569;29;20129;-88
2022/04/22 12:13:54;;;;;;;23.08;11.45;;;;;;;12.84;54.48;91094.16;4788151;29;20145;-87
2022/04/22 12:16:25;;;;;;;23.20;10.15;;;;;;;12.98;54.56;91072.78;4803160;29;20038;-88
2022/04/22 12:18:53;;;;;;;25.08;12.13;;;;;;;13.10;55.17;91102.38;4805888;29;20038;-88
2022/04/22 12:21:20;;;;;;;29.65;13.95;;;;;;;12.80;56.15;91095.91;4801651;29;20066;-87
2022/04/22 12:23:49;;;;;;;20.88;11.65;;;;;;;12.85;56.65;91091.19;4793766;29;20635;-88
2022/04/22 12:26:25;;;;;;;18.90;9.32;;;;;;;13.20;53.89;91084.63;4808511;29;20026;-89
2022/04/22 12:28:57;;;;;;;14.48;7.55;;;;;;;13.33;53.49;91083.47;4809632;29;20069;-90
2022/04/22 12:31:24;;;;;;;;;;;;;;;13.41;54.08;91100.94;4826099;29;20074;-87
2022/04/22 12:33:59;;;;;;;23.15;8.48;;;;;;;13.70;53.00;91078.00;4794671;29;20428;-89
2022/04/22 12:36:25;;;;;;;19.85;9.35;;;;;;;13.69;52.89;91100.13;4825617;29;20134;-89
2022/04/22 12:38:51;;;;;;;20.15;9.23;;;;;;;13.38;54.40;91100.88;4779801;29;20121;-89
2022/04/22 12:41:20;;;;;;;12.18;7.10;;;;;;;13.08;55.03;91090.66;4827235;29;20064;-88
2022/04/22 12:43:50;;;;;;;16.52;8.73;;;;;;;13.74;53.36;91103.28;4824874;29;20038;-89
2022/04/22 12:52:14;;;;;;;17.45;9.40;;;;;;;13.99;52.75;91081.31;4807797;29;20044;-89
2022/04/22 12:54:45;;;;;;;19.00;9.38;;;;;;;14.09;53.17;91092.06;4791550;29;20045;-89
2022/04/22 12:57:16;;;;;;;19.35;9.80;;;;;;;14.42;53.25;91104.09;4823286;29;20495;-90